sensor_id;sensor_type;location;lat;lon;timestamp;P1;durP1;ratioP1;P2;durP2;ratioP2
13421;SDS011;6782;55.904;13.396;2022-07-25T00:02:29;4.30;;;4.00;;
13421;SDS011;6782;55.904;13.396;2022-07-25T00:05:15;4.15;;;3.85;;
13421;SDS011;6782;55.904;13.396;2022-07-25T00:08:02;3.80;;;3.47;;
13421;SDS011;6782;55.904;13.396;2022-07-25T00:10:49;5.32;;;4.20;;
13421;SDS011;6782;55.904;13.396;2022-07-25T00:13:36;4.90;;;4.35;;
13421;SDS011;6782;55.904;13.396;2022-07-25T00:16:22;4.45;;;4.15;;
13421;SDS011;6782;55.904;13.396;2022-07-25T00:19:11;4.13;;;3.70;;
13421;SDS011;6782;55.904;13.396;2022-07-25T00:21:58;4.00;;;3.70;;
13421;SDS011;6782;55.904;13.396;2022-07-25T00:24:44;4.47;;;4.07;;
13421;SDS011;6782;55.904;13.396;2022-07-25T00:27:31;4.40;;;4.10;;
13421;SDS011;6782;55.904;13.396;2022-07-25T00:30:18;4.35;;;3.97;;
13421;SDS011;6782;55.904;13.396;2022-07-25T00:33:04;3.88;;;3.53;;
13421;SDS011;6782;55.904;13.396;2022-07-25T00:35:53;4.65;;;4.25;;
13421;SDS011;6782;55.904;13.396;2022-07-25T00:38:39;4.22;;;3.75;;
13421;SDS011;6782;55.904;13.396;2022-07-25T00:41:26;4.38;;;3.97;;
13421;SDS011;6782;55.904;13.396;2022-07-25T00:44:20;4.60;;;3.78;;
13421;SDS011;6782;55.904;13.396;2022-07-25T00:47:07;4.55;;;4.10;;
13421;SDS011;6782;55.904;13.396;2022-07-25T00:49:54;4.57;;;4.18;;
13421;SDS011;6782;55.904;13.396;2022-07-25T00:52:42;5.53;;;4.18;;
13421;SDS011;6782;55.904;13.396;2022-07-25T00:55:29;4.40;;;4.00;;
13421;SDS011;6782;55.904;13.396;2022-07-25T00:58:16;4.57;;;4.10;;
13421;SDS011;6782;55.904;13.396;2022-07-25T01:01:03;4.50;;;3.80;;
13421;SDS011;6782;55.904;13.396;2022-07-25T01:03:50;4.35;;;3.85;;
13421;SDS011;6782;55.904;13.396;2022-07-25T01:06:37;4.97;;;4.57;;
13421;SDS011;6782;55.904;13.396;2022-07-25T01:09:25;5.00;;;4.40;;
13421;SDS011;6782;55.904;13.396;2022-07-25T01:12:12;5.72;;;4.40;;
13421;SDS011;6782;55.904;13.396;2022-07-25T01:14:59;4.70;;;4.25;;
13421;SDS011;6782;55.904;13.396;2022-07-25T01:17:45;5.00;;;4.47;;
13421;SDS011;6782;55.904;13.396;2022-07-25T01:20:33;5.13;;;4.50;;
13421;SDS011;6782;55.904;13.396;2022-07-25T01:23:20;4.60;;;4.18;;
13421;SDS011;6782;55.904;13.396;2022-07-25T01:26:07;4.65;;;4.18;;
13421;SDS011;6782;55.904;13.396;2022-07-25T01:28:54;5.18;;;4.15;;
13421;SDS011;6782;55.904;13.396;2022-07-25T01:31:41;5.45;;;4.97;;
13421;SDS011;6782;55.904;13.396;2022-07-25T01:34:28;4.72;;;4.32;;
13421;SDS011;6782;55.904;13.396;2022-07-25T01:37:16;4.80;;;4.40;;
13421;SDS011;6782;55.904;13.396;2022-07-25T01:40:03;4.78;;;4.38;;
13421;SDS011;6782;55.904;13.396;2022-07-25T01:42:50;4.35;;;3.95;;
13421;SDS011;6782;55.904;13.396;2022-07-25T01:45:37;5.18;;;4.65;;
13421;SDS011;6782;55.904;13.396;2022-07-25T01:48:24;6.13;;;4.72;;
13421;SDS011;6782;55.904;13.396;2022-07-25T01:51:10;5.20;;;4.78;;
13421;SDS011;6782;55.904;13.396;2022-07-25T01:53:59;5.15;;;4.68;;
13421;SDS011;6782;55.904;13.396;2022-07-25T01:56:45;5.38;;;4.80;;
13421;SDS011;6782;55.904;13.396;2022-07-25T01:59:35;4.70;;;4.30;;
13421;SDS011;6782;55.904;13.396;2022-07-25T02:02:22;5.30;;;4.80;;
13421;SDS011;6782;55.904;13.396;2022-07-25T02:05:09;6.10;;;4.93;;
13421;SDS011;6782;55.904;13.396;2022-07-25T02:07:56;4.60;;;4.20;;
13421;SDS011;6782;55.904;13.396;2022-07-25T02:10:44;5.28;;;4.63;;
13421;SDS011;6782;55.904;13.396;2022-07-25T02:13:30;4.68;;;4.28;;
13421;SDS011;6782;55.904;13.396;2022-07-25T02:16:17;5.00;;;4.47;;
13421;SDS011;6782;55.904;13.396;2022-07-25T02:19:04;5.47;;;5.07;;
13421;SDS011;6782;55.904;13.396;2022-07-25T02:21:51;4.65;;;4.25;;
13421;SDS011;6782;55.904;13.396;2022-07-25T02:24:37;4.30;;;4.00;;
13421;SDS011;6782;55.904;13.396;2022-07-25T02:27:26;6.50;;;5.13;;
13421;SDS011;6782;55.904;13.396;2022-07-25T02:30:12;5.45;;;5.00;;
13421;SDS011;6782;55.904;13.396;2022-07-25T02:32:59;5.03;;;4.63;;
13421;SDS011;6782;55.904;13.396;2022-07-25T02:35:46;5.07;;;4.57;;
13421;SDS011;6782;55.904;13.396;2022-07-25T02:38:33;4.88;;;4.40;;
13421;SDS011;6782;55.904;13.396;2022-07-25T02:41:20;6.53;;;5.15;;
13421;SDS011;6782;55.904;13.396;2022-07-25T02:44:08;7.47;;;4.40;;
13421;SDS011;6782;55.904;13.396;2022-07-25T02:46:55;6.47;;;4.43;;
13421;SDS011;6782;55.904;13.396;2022-07-25T02:49:41;6.32;;;5.05;;
13421;SDS011;6782;55.904;13.396;2022-07-25T02:52:28;5.57;;;4.97;;
13421;SDS011;6782;55.904;13.396;2022-07-25T02:55:15;7.07;;;4.75;;
13421;SDS011;6782;55.904;13.396;2022-07-25T02:58:01;5.60;;;5.20;;
13421;SDS011;6782;55.904;13.396;2022-07-25T03:00:50;6.03;;;4.80;;
13421;SDS011;6782;55.904;13.396;2022-07-25T03:03:36;6.32;;;4.90;;
13421;SDS011;6782;55.904;13.396;2022-07-25T03:06:24;5.60;;;4.80;;
13421;SDS011;6782;55.904;13.396;2022-07-25T03:09:10;5.22;;;4.72;;
13421;SDS011;6782;55.904;13.396;2022-07-25T03:11:57;4.88;;;4.40;;
13421;SDS011;6782;55.904;13.396;2022-07-25T03:14:44;5.38;;;4.75;;
13421;SDS011;6782;55.904;13.396;2022-07-25T03:17:32;5.35;;;4.32;;
13421;SDS011;6782;55.904;13.396;2022-07-25T03:20:19;6.13;;;4.93;;
13421;SDS011;6782;55.904;13.396;2022-07-25T03:23:05;5.28;;;4.70;;
13421;SDS011;6782;55.904;13.396;2022-07-25T03:25:52;6.32;;;4.97;;
13421;SDS011;6782;55.904;13.396;2022-07-25T03:28:39;5.10;;;4.70;;
13421;SDS011;6782;55.904;13.396;2022-07-25T03:31:26;4.75;;;4.35;;
13421;SDS011;6782;55.904;13.396;2022-07-25T03:34:14;7.75;;;4.72;;
13421;SDS011;6782;55.904;13.396;2022-07-25T03:37:00;4.90;;;4.28;;
13421;SDS011;6782;55.904;13.396;2022-07-25T03:39:48;4.65;;;4.25;;
13421;SDS011;6782;55.904;13.396;2022-07-25T03:42:34;4.43;;;4.03;;
13421;SDS011;6782;55.904;13.396;2022-07-25T03:45:21;5.10;;;4.60;;
13421;SDS011;6782;55.904;13.396;2022-07-25T03:48:08;4.93;;;4.20;;
13421;SDS011;6782;55.904;13.396;2022-07-25T03:50:56;6.97;;;3.97;;
13421;SDS011;6782;55.904;13.396;2022-07-25T03:53:43;4.88;;;4.10;;
13421;SDS011;6782;55.904;13.396;2022-07-25T03:56:49;4.90;;;4.38;;
13421;SDS011;6782;55.904;13.396;2022-07-25T03:59:36;4.10;;;3.70;;
13421;SDS011;6782;55.904;13.396;2022-07-25T04:02:22;6.35;;;4.22;;
13421;SDS011;6782;55.904;13.396;2022-07-25T04:05:09;4.80;;;4.07;;
13421;SDS011;6782;55.904;13.396;2022-07-25T04:07:57;3.70;;;3.40;;
13421;SDS011;6782;55.904;13.396;2022-07-25T04:10:44;6.22;;;4.40;;
13421;SDS011;6782;55.904;13.396;2022-07-25T04:13:31;6.15;;;4.10;;
13421;SDS011;6782;55.904;13.396;2022-07-25T04:16:18;5.78;;;4.47;;
13421;SDS011;6782;55.904;13.396;2022-07-25T04:19:05;5.15;;;4.28;;
13421;SDS011;6782;55.904;13.396;2022-07-25T04:21:51;5.32;;;4.38;;
13421;SDS011;6782;55.904;13.396;2022-07-25T04:24:40;5.28;;;4.22;;
13421;SDS011;6782;55.904;13.396;2022-07-25T04:27:26;4.63;;;4.07;;
13421;SDS011;6782;55.904;13.396;2022-07-25T04:30:13;4.57;;;3.90;;
13421;SDS011;6782;55.904;13.396;2022-07-25T04:33:00;5.25;;;4.30;;
13421;SDS011;6782;55.904;13.396;2022-07-25T04:35:47;5.28;;;4.22;;
13421;SDS011;6782;55.904;13.396;2022-07-25T04:38:34;6.00;;;4.20;;
13421;SDS011;6782;55.904;13.396;2022-07-25T04:41:22;4.65;;;4.20;;
13421;SDS011;6782;55.904;13.396;2022-07-25T04:44:08;4.57;;;4.20;;
13421;SDS011;6782;55.904;13.396;2022-07-25T04:46:56;6.55;;;3.72;;
13421;SDS011;6782;55.904;13.396;2022-07-25T04:49:42;5.22;;;3.90;;
13421;SDS011;6782;55.904;13.396;2022-07-25T04:52:29;4.28;;;3.97;;
13421;SDS011;6782;55.904;13.396;2022-07-25T04:55:16;4.18;;;3.78;;
13421;SDS011;6782;55.904;13.396;2022-07-25T04:58:04;5.65;;;3.88;;
13421;SDS011;6782;55.904;13.396;2022-07-25T05:00:51;4.93;;;3.83;;
13421;SDS011;6782;55.904;13.396;2022-07-25T05:03:37;4.35;;;3.95;;
13421;SDS011;6782;55.904;13.396;2022-07-25T05:06:24;3.90;;;3.50;;
13421;SDS011;6782;55.904;13.396;2022-07-25T05:09:11;3.95;;;3.63;;
13421;SDS011;6782;55.904;13.396;2022-07-25T05:11:58;4.55;;;3.60;;
13421;SDS011;6782;55.904;13.396;2022-07-25T05:14:46;7.13;;;4.35;;
13421;SDS011;6782;55.904;13.396;2022-07-25T05:17:33;4.20;;;3.80;;
13421;SDS011;6782;55.904;13.396;2022-07-25T05:20:20;4.10;;;3.70;;
13421;SDS011;6782;55.904;13.396;2022-07-25T05:23:07;5.28;;;3.50;;
13421;SDS011;6782;55.904;13.396;2022-07-25T05:25:56;4.57;;;3.60;;
13421;SDS011;6782;55.904;13.396;2022-07-25T05:28:43;3.92;;;3.58;;
13421;SDS011;6782;55.904;13.396;2022-07-25T05:31:31;4.00;;;3.60;;
13421;SDS011;6782;55.904;13.396;2022-07-25T05:34:18;4.90;;;4.15;;
13421;SDS011;6782;55.904;13.396;2022-07-25T05:37:05;3.80;;;3.45;;
13421;SDS011;6782;55.904;13.396;2022-07-25T05:39:52;4.65;;;3.25;;
13421;SDS011;6782;55.904;13.396;2022-07-25T05:42:39;4.22;;;2.80;;
13421;SDS011;6782;55.904;13.396;2022-07-25T05:45:25;4.47;;;3.35;;
13421;SDS011;6782;55.904;13.396;2022-07-25T05:48:14;4.38;;;3.75;;
13421;SDS011;6782;55.904;13.396;2022-07-25T05:51:01;3.92;;;3.60;;
13421;SDS011;6782;55.904;13.396;2022-07-25T05:53:48;3.60;;;3.13;;
13421;SDS011;6782;55.904;13.396;2022-07-25T05:56:35;4.85;;;3.38;;
13421;SDS011;6782;55.904;13.396;2022-07-25T05:59:22;4.00;;;3.33;;
13421;SDS011;6782;55.904;13.396;2022-07-25T06:02:08;3.58;;;2.95;;
13421;SDS011;6782;55.904;13.396;2022-07-25T06:04:57;3.42;;;3.00;;
13421;SDS011;6782;55.904;13.396;2022-07-25T06:07:44;4.72;;;3.53;;
13421;SDS011;6782;55.904;13.396;2022-07-25T06:10:31;3.92;;;3.33;;
13421;SDS011;6782;55.904;13.396;2022-07-25T06:13:17;3.67;;;3.20;;
13421;SDS011;6782;55.904;13.396;2022-07-25T06:16:04;5.50;;;3.20;;
13421;SDS011;6782;55.904;13.396;2022-07-25T06:18:51;3.53;;;3.05;;
13421;SDS011;6782;55.904;13.396;2022-07-25T06:21:40;3.63;;;3.30;;
13421;SDS011;6782;55.904;13.396;2022-07-25T06:24:27;2.95;;;2.75;;
13421;SDS011;6782;55.904;13.396;2022-07-25T06:27:13;3.92;;;3.13;;
13421;SDS011;6782;55.904;13.396;2022-07-25T06:30:01;4.90;;;3.00;;
13421;SDS011;6782;55.904;13.396;2022-07-25T06:32:48;3.85;;;3.28;;
13421;SDS011;6782;55.904;13.396;2022-07-25T06:35:35;3.42;;;3.03;;
13421;SDS011;6782;55.904;13.396;2022-07-25T06:38:23;3.42;;;2.80;;
13421;SDS011;6782;55.904;13.396;2022-07-25T06:41:12;3.17;;;2.72;;
13421;SDS011;6782;55.904;13.396;2022-07-25T06:43:59;3.25;;;2.92;;
13421;SDS011;6782;55.904;13.396;2022-07-25T06:46:46;3.75;;;2.97;;
13421;SDS011;6782;55.904;13.396;2022-07-25T06:49:32;6.78;;;3.20;;
13421;SDS011;6782;55.904;13.396;2022-07-25T06:52:19;2.70;;;2.50;;
13421;SDS011;6782;55.904;13.396;2022-07-25T06:55:09;3.17;;;2.88;;
13421;SDS011;6782;55.904;13.396;2022-07-25T06:57:58;2.75;;;2.50;;
13421;SDS011;6782;55.904;13.396;2022-07-25T07:00:45;2.88;;;2.60;;
13421;SDS011;6782;55.904;13.396;2022-07-25T07:03:32;7.68;;;2.92;;
13421;SDS011;6782;55.904;13.396;2022-07-25T07:06:22;3.30;;;3.03;;
13421;SDS011;6782;55.904;13.396;2022-07-25T07:09:09;3.60;;;3.20;;
13421;SDS011;6782;55.904;13.396;2022-07-25T07:11:57;3.42;;;3.13;;
13421;SDS011;6782;55.904;13.396;2022-07-25T07:14:44;5.30;;;3.20;;
13421;SDS011;6782;55.904;13.396;2022-07-25T07:17:32;3.55;;;2.88;;
13421;SDS011;6782;55.904;13.396;2022-07-25T07:20:19;4.65;;;2.67;;
13421;SDS011;6782;55.904;13.396;2022-07-25T07:23:06;3.40;;;2.50;;
13421;SDS011;6782;55.904;13.396;2022-07-25T07:25:52;4.43;;;2.85;;
13421;SDS011;6782;55.904;13.396;2022-07-25T07:28:41;2.95;;;2.70;;
13421;SDS011;6782;55.904;13.396;2022-07-25T07:31:28;5.20;;;3.05;;
13421;SDS011;6782;55.904;13.396;2022-07-25T07:34:14;3.72;;;2.88;;
13421;SDS011;6782;55.904;13.396;2022-07-25T07:37:01;3.47;;;2.65;;
13421;SDS011;6782;55.904;13.396;2022-07-25T07:39:48;4.45;;;2.70;;
13421;SDS011;6782;55.904;13.396;2022-07-25T07:42:36;3.55;;;2.80;;
13421;SDS011;6782;55.904;13.396;2022-07-25T07:45:24;3.15;;;2.65;;
13421;SDS011;6782;55.904;13.396;2022-07-25T07:48:11;2.40;;;2.20;;
13421;SDS011;6782;55.904;13.396;2022-07-25T07:50:59;4.63;;;2.50;;
13421;SDS011;6782;55.904;13.396;2022-07-25T07:53:46;3.00;;;2.70;;
13421;SDS011;6782;55.904;13.396;2022-07-25T07:56:50;6.43;;;2.83;;
13421;SDS011;6782;55.904;13.396;2022-07-25T07:59:37;6.45;;;2.67;;
13421;SDS011;6782;55.904;13.396;2022-07-25T08:02:25;2.60;;;2.40;;
13421;SDS011;6782;55.904;13.396;2022-07-25T08:05:12;6.38;;;2.72;;
13421;SDS011;6782;55.904;13.396;2022-07-25T08:07:59;2.75;;;2.50;;
13421;SDS011;6782;55.904;13.396;2022-07-25T08:10:47;4.10;;;2.67;;
13421;SDS011;6782;55.904;13.396;2022-07-25T08:13:34;2.53;;;2.33;;
13421;SDS011;6782;55.904;13.396;2022-07-25T08:16:22;3.13;;;2.50;;
13421;SDS011;6782;55.904;13.396;2022-07-25T08:19:10;3.38;;;2.75;;
13421;SDS011;6782;55.904;13.396;2022-07-25T08:21:57;2.83;;;2.60;;
13421;SDS011;6782;55.904;13.396;2022-07-25T08:24:44;3.50;;;2.70;;
13421;SDS011;6782;55.904;13.396;2022-07-25T08:27:31;3.10;;;2.40;;
13421;SDS011;6782;55.904;13.396;2022-07-25T08:30:18;2.55;;;2.35;;
13421;SDS011;6782;55.904;13.396;2022-07-25T08:33:05;3.45;;;2.45;;
13421;SDS011;6782;55.904;13.396;2022-07-25T08:35:55;2.47;;;2.25;;
13421;SDS011;6782;55.904;13.396;2022-07-25T08:38:43;3.00;;;2.35;;
13421;SDS011;6782;55.904;13.396;2022-07-25T08:41:29;2.95;;;2.38;;
13421;SDS011;6782;55.904;13.396;2022-07-25T08:44:18;3.38;;;2.30;;
13421;SDS011;6782;55.904;13.396;2022-07-25T08:47:06;2.50;;;2.30;;
13421;SDS011;6782;55.904;13.396;2022-07-25T08:49:53;2.30;;;2.13;;
13421;SDS011;6782;55.904;13.396;2022-07-25T08:52:42;2.30;;;2.05;;
13421;SDS011;6782;55.904;13.396;2022-07-25T08:55:29;2.83;;;2.30;;
13421;SDS011;6782;55.904;13.396;2022-07-25T08:58:16;3.92;;;2.00;;
13421;SDS011;6782;55.904;13.396;2022-07-25T09:01:03;2.50;;;2.30;;
13421;SDS011;6782;55.904;13.396;2022-07-25T09:03:50;2.45;;;2.25;;
13421;SDS011;6782;55.904;13.396;2022-07-25T09:06:47;2.22;;;2.03;;
13421;SDS011;6782;55.904;13.396;2022-07-25T09:09:36;3.95;;;2.40;;
13421;SDS011;6782;55.904;13.396;2022-07-25T09:12:24;2.20;;;2.00;;
13421;SDS011;6782;55.904;13.396;2022-07-25T09:15:11;4.45;;;2.47;;
13421;SDS011;6782;55.904;13.396;2022-07-25T09:18:09;2.70;;;1.90;;
13421;SDS011;6782;55.904;13.396;2022-07-25T09:20:59;2.42;;;2.22;;
13421;SDS011;6782;55.904;13.396;2022-07-25T09:23:47;2.97;;;1.95;;
13421;SDS011;6782;55.904;13.396;2022-07-25T09:26:43;2.17;;;2.05;;
13421;SDS011;6782;55.904;13.396;2022-07-25T09:29:31;2.72;;;2.20;;
13421;SDS011;6782;55.904;13.396;2022-07-25T09:32:19;2.25;;;2.08;;
13421;SDS011;6782;55.904;13.396;2022-07-25T09:35:06;2.40;;;2.20;;
13421;SDS011;6782;55.904;13.396;2022-07-25T09:37:53;2.33;;;2.00;;
13421;SDS011;6782;55.904;13.396;2022-07-25T09:40:40;3.22;;;2.33;;
13421;SDS011;6782;55.904;13.396;2022-07-25T09:43:38;2.45;;;2.20;;
13421;SDS011;6782;55.904;13.396;2022-07-25T09:46:28;2.30;;;2.10;;
13421;SDS011;6782;55.904;13.396;2022-07-25T09:49:15;2.15;;;2.00;;
13421;SDS011;6782;55.904;13.396;2022-07-25T09:52:03;2.50;;;2.30;;
13421;SDS011;6782;55.904;13.396;2022-07-25T09:54:50;2.78;;;2.40;;
13421;SDS011;6782;55.904;13.396;2022-07-25T09:57:40;3.75;;;2.20;;
13421;SDS011;6782;55.904;13.396;2022-07-25T10:00:31;2.40;;;2.20;;
13421;SDS011;6782;55.904;13.396;2022-07-25T10:03:19;2.25;;;2.13;;
13421;SDS011;6782;55.904;13.396;2022-07-25T10:06:14;2.20;;;2.10;;
13421;SDS011;6782;55.904;13.396;2022-07-25T10:09:09;3.53;;;2.35;;
13421;SDS011;6782;55.904;13.396;2022-07-25T10:12:02;2.50;;;2.30;;
13421;SDS011;6782;55.904;13.396;2022-07-25T10:15:03;3.08;;;2.20;;
13421;SDS011;6782;55.904;13.396;2022-07-25T10:17:52;8.40;;;2.60;;
13421;SDS011;6782;55.904;13.396;2022-07-25T10:20:47;4.38;;;2.40;;
13421;SDS011;6782;55.904;13.396;2022-07-25T10:23:34;6.47;;;2.80;;
13421;SDS011;6782;55.904;13.396;2022-07-25T10:26:21;6.22;;;2.50;;
13421;SDS011;6782;55.904;13.396;2022-07-25T10:29:10;2.63;;;2.42;;
13421;SDS011;6782;55.904;13.396;2022-07-25T10:32:03;2.15;;;2.05;;
13421;SDS011;6782;55.904;13.396;2022-07-25T10:34:52;4.40;;;2.35;;
13421;SDS011;6782;55.904;13.396;2022-07-25T10:37:39;3.38;;;2.28;;
13421;SDS011;6782;55.904;13.396;2022-07-25T10:40:27;3.75;;;2.25;;
13421;SDS011;6782;55.904;13.396;2022-07-25T10:43:17;3.97;;;2.20;;
13421;SDS011;6782;55.904;13.396;2022-07-25T10:46:09;11.50;;;2.60;;
13421;SDS011;6782;55.904;13.396;2022-07-25T10:48:57;2.75;;;2.20;;
13421;SDS011;6782;55.904;13.396;2022-07-25T10:51:53;3.53;;;2.20;;
13421;SDS011;6782;55.904;13.396;2022-07-25T10:54:40;2.38;;;2.17;;
13421;SDS011;6782;55.904;13.396;2022-07-25T10:57:27;3.00;;;2.30;;
13421;SDS011;6782;55.904;13.396;2022-07-25T11:00:14;3.45;;;2.28;;
13421;SDS011;6782;55.904;13.396;2022-07-25T11:03:01;2.30;;;2.10;;
13421;SDS011;6782;55.904;13.396;2022-07-25T11:05:49;2.90;;;2.10;;
13421;SDS011;6782;55.904;13.396;2022-07-25T11:08:40;3.17;;;2.50;;
13421;SDS011;6782;55.904;13.396;2022-07-25T11:11:37;2.38;;;2.17;;
13421;SDS011;6782;55.904;13.396;2022-07-25T11:14:26;2.17;;;1.98;;
13421;SDS011;6782;55.904;13.396;2022-07-25T11:17:16;2.42;;;2.22;;
13421;SDS011;6782;55.904;13.396;2022-07-25T11:20:04;3.72;;;2.40;;
13421;SDS011;6782;55.904;13.396;2022-07-25T11:22:52;2.90;;;2.70;;
13421;SDS011;6782;55.904;13.396;2022-07-25T11:25:41;2.63;;;2.30;;
13421;SDS011;6782;55.904;13.396;2022-07-25T11:28:35;5.30;;;2.67;;
13421;SDS011;6782;55.904;13.396;2022-07-25T11:31:22;4.25;;;2.75;;
13421;SDS011;6782;55.904;13.396;2022-07-25T11:34:09;3.80;;;2.63;;
13421;SDS011;6782;55.904;13.396;2022-07-25T11:36:56;8.90;;;3.30;;
13421;SDS011;6782;55.904;13.396;2022-07-25T11:39:44;3.13;;;2.33;;
13421;SDS011;6782;55.904;13.396;2022-07-25T11:42:39;3.83;;;2.05;;
13421;SDS011;6782;55.904;13.396;2022-07-25T11:45:26;4.15;;;2.55;;
13421;SDS011;6782;55.904;13.396;2022-07-25T11:48:13;4.05;;;2.63;;
13421;SDS011;6782;55.904;13.396;2022-07-25T11:51:13;2.88;;;2.60;;
13421;SDS011;6782;55.904;13.396;2022-07-25T11:54:05;2.55;;;2.10;;
13421;SDS011;6782;55.904;13.396;2022-07-25T11:56:52;4.43;;;2.40;;
13421;SDS011;6782;55.904;13.396;2022-07-25T11:59:41;2.67;;;2.25;;
13421;SDS011;6782;55.904;13.396;2022-07-25T12:02:30;3.00;;;2.22;;
13421;SDS011;6782;55.904;13.396;2022-07-25T12:05:18;2.50;;;2.30;;
13421;SDS011;6782;55.904;13.396;2022-07-25T12:08:09;4.00;;;2.35;;
13421;SDS011;6782;55.904;13.396;2022-07-25T12:10:56;2.92;;;2.30;;
13421;SDS011;6782;55.904;13.396;2022-07-25T12:13:43;5.18;;;2.33;;
13421;SDS011;6782;55.904;13.396;2022-07-25T12:16:31;6.70;;;2.85;;
13421;SDS011;6782;55.904;13.396;2022-07-25T12:19:18;5.13;;;2.50;;
13421;SDS011;6782;55.904;13.396;2022-07-25T12:22:05;5.55;;;2.70;;
13421;SDS011;6782;55.904;13.396;2022-07-25T12:24:52;3.92;;;2.50;;
13421;SDS011;6782;55.904;13.396;2022-07-25T12:27:39;7.00;;;2.78;;
13421;SDS011;6782;55.904;13.396;2022-07-25T12:30:26;3.92;;;2.75;;
13421;SDS011;6782;55.904;13.396;2022-07-25T12:33:15;3.92;;;2.42;;
13421;SDS011;6782;55.904;13.396;2022-07-25T12:36:02;2.45;;;2.25;;
13421;SDS011;6782;55.904;13.396;2022-07-25T12:38:49;3.25;;;2.95;;
13421;SDS011;6782;55.904;13.396;2022-07-25T12:41:36;4.60;;;2.92;;
13421;SDS011;6782;55.904;13.396;2022-07-25T12:44:24;4.53;;;2.75;;
13421;SDS011;6782;55.904;13.396;2022-07-25T12:47:11;3.08;;;2.33;;
13421;SDS011;6782;55.904;13.396;2022-07-25T12:49:59;4.50;;;2.75;;
13421;SDS011;6782;55.904;13.396;2022-07-25T12:52:46;4.30;;;2.47;;
13421;SDS011;6782;55.904;13.396;2022-07-25T12:55:33;4.13;;;2.80;;
13421;SDS011;6782;55.904;13.396;2022-07-25T12:58:19;3.63;;;2.42;;
13421;SDS011;6782;55.904;13.396;2022-07-25T13:01:06;3.42;;;2.70;;
13421;SDS011;6782;55.904;13.396;2022-07-25T13:03:53;5.90;;;3.03;;
13421;SDS011;6782;55.904;13.396;2022-07-25T13:06:41;4.25;;;2.70;;
13421;SDS011;6782;55.904;13.396;2022-07-25T13:09:28;3.67;;;2.42;;
13421;SDS011;6782;55.904;13.396;2022-07-25T13:12:15;3.38;;;2.30;;
13421;SDS011;6782;55.904;13.396;2022-07-25T13:15:01;3.33;;;2.13;;
13421;SDS011;6782;55.904;13.396;2022-07-25T13:17:48;2.67;;;2.22;;
13421;SDS011;6782;55.904;13.396;2022-07-25T13:20:35;4.35;;;2.78;;
13421;SDS011;6782;55.904;13.396;2022-07-25T13:23:23;6.95;;;3.00;;
13421;SDS011;6782;55.904;13.396;2022-07-25T13:26:10;2.47;;;2.28;;
13421;SDS011;6782;55.904;13.396;2022-07-25T13:28:57;2.70;;;2.25;;
13421;SDS011;6782;55.904;13.396;2022-07-25T13:31:44;2.72;;;2.53;;
13421;SDS011;6782;55.904;13.396;2022-07-25T13:34:31;2.83;;;2.58;;
13421;SDS011;6782;55.904;13.396;2022-07-25T13:37:18;3.90;;;2.50;;
13421;SDS011;6782;55.904;13.396;2022-07-25T13:40:06;3.10;;;2.40;;
13421;SDS011;6782;55.904;13.396;2022-07-25T13:42:53;3.53;;;2.53;;
13421;SDS011;6782;55.904;13.396;2022-07-25T13:45:40;2.78;;;2.47;;
13421;SDS011;6782;55.904;13.396;2022-07-25T13:48:27;3.58;;;2.45;;
13421;SDS011;6782;55.904;13.396;2022-07-25T13:51:14;3.33;;;2.50;;
13421;SDS011;6782;55.904;13.396;2022-07-25T13:54:01;3.10;;;2.33;;
13421;SDS011;6782;55.904;13.396;2022-07-25T13:56:49;5.65;;;2.97;;
13421;SDS011;6782;55.904;13.396;2022-07-25T13:59:36;2.83;;;2.38;;
13421;SDS011;6782;55.904;13.396;2022-07-25T14:02:23;2.97;;;2.78;;
13421;SDS011;6782;55.904;13.396;2022-07-25T14:05:10;3.47;;;2.95;;
13421;SDS011;6782;55.904;13.396;2022-07-25T14:07:58;3.13;;;2.78;;
13421;SDS011;6782;55.904;13.396;2022-07-25T14:10:44;4.72;;;2.78;;
13421;SDS011;6782;55.904;13.396;2022-07-25T14:13:33;2.80;;;2.60;;
13421;SDS011;6782;55.904;13.396;2022-07-25T14:16:20;2.67;;;2.47;;
13421;SDS011;6782;55.904;13.396;2022-07-25T14:19:08;3.40;;;2.72;;
13421;SDS011;6782;55.904;13.396;2022-07-25T14:21:55;3.20;;;2.70;;
13421;SDS011;6782;55.904;13.396;2022-07-25T14:24:41;3.25;;;2.83;;
13421;SDS011;6782;55.904;13.396;2022-07-25T14:27:28;3.03;;;2.70;;
13421;SDS011;6782;55.904;13.396;2022-07-25T14:30:17;4.28;;;2.97;;
13421;SDS011;6782;55.904;13.396;2022-07-25T14:33:04;5.03;;;3.00;;
13421;SDS011;6782;55.904;13.396;2022-07-25T14:35:51;4.43;;;3.10;;
13421;SDS011;6782;55.904;13.396;2022-07-25T14:38:38;5.80;;;3.40;;
13421;SDS011;6782;55.904;13.396;2022-07-25T14:41:25;26.25;;;5.72;;
13421;SDS011;6782;55.904;13.396;2022-07-25T14:44:12;7.32;;;3.55;;
13421;SDS011;6782;55.904;13.396;2022-07-25T14:47:01;4.65;;;3.35;;
13421;SDS011;6782;55.904;13.396;2022-07-25T14:49:47;3.63;;;3.40;;
13421;SDS011;6782;55.904;13.396;2022-07-25T14:52:35;9.05;;;3.72;;
13421;SDS011;6782;55.904;13.396;2022-07-25T14:55:22;4.65;;;3.17;;
13421;SDS011;6782;55.904;13.396;2022-07-25T14:58:10;4.15;;;3.17;;
13421;SDS011;6782;55.904;13.396;2022-07-25T15:00:58;7.95;;;3.85;;
13421;SDS011;6782;55.904;13.396;2022-07-25T15:03:46;7.55;;;3.60;;
13421;SDS011;6782;55.904;13.396;2022-07-25T15:06:33;6.80;;;3.35;;
13421;SDS011;6782;55.904;13.396;2022-07-25T15:09:20;5.45;;;3.42;;
13421;SDS011;6782;55.904;13.396;2022-07-25T15:12:07;4.18;;;3.80;;
13421;SDS011;6782;55.904;13.396;2022-07-25T15:14:54;5.72;;;3.45;;
13421;SDS011;6782;55.904;13.396;2022-07-25T15:17:41;8.43;;;3.97;;
13421;SDS011;6782;55.904;13.396;2022-07-25T15:20:29;4.97;;;3.83;;
13421;SDS011;6782;55.904;13.396;2022-07-25T15:23:16;4.75;;;3.60;;
13421;SDS011;6782;55.904;13.396;2022-07-25T15:26:05;5.28;;;3.53;;
13421;SDS011;6782;55.904;13.396;2022-07-25T15:28:52;4.85;;;3.33;;
13421;SDS011;6782;55.904;13.396;2022-07-25T15:31:39;3.63;;;3.33;;
13421;SDS011;6782;55.904;13.396;2022-07-25T15:34:26;4.07;;;3.40;;
13421;SDS011;6782;55.904;13.396;2022-07-25T15:37:14;5.05;;;3.75;;
13421;SDS011;6782;55.904;13.396;2022-07-25T15:40:01;5.40;;;3.67;;
13421;SDS011;6782;55.904;13.396;2022-07-25T15:42:48;4.10;;;3.70;;
13421;SDS011;6782;55.904;13.396;2022-07-25T15:45:36;4.78;;;3.88;;
13421;SDS011;6782;55.904;13.396;2022-07-25T15:48:23;5.20;;;3.70;;
13421;SDS011;6782;55.904;13.396;2022-07-25T15:51:13;4.80;;;4.03;;
13421;SDS011;6782;55.904;13.396;2022-07-25T15:54:02;3.95;;;3.65;;
13421;SDS011;6782;55.904;13.396;2022-07-25T15:56:49;3.90;;;3.60;;
13421;SDS011;6782;55.904;13.396;2022-07-25T15:59:35;4.10;;;3.70;;
13421;SDS011;6782;55.904;13.396;2022-07-25T16:02:22;5.47;;;4.10;;
13421;SDS011;6782;55.904;13.396;2022-07-25T16:05:09;4.35;;;3.60;;
13421;SDS011;6782;55.904;13.396;2022-07-25T16:07:56;4.55;;;3.60;;
13421;SDS011;6782;55.904;13.396;2022-07-25T16:10:46;4.70;;;4.25;;
13421;SDS011;6782;55.904;13.396;2022-07-25T16:13:33;3.65;;;3.35;;
13421;SDS011;6782;55.904;13.396;2022-07-25T16:16:19;4.40;;;4.00;;
13421;SDS011;6782;55.904;13.396;2022-07-25T16:19:07;4.30;;;3.88;;
13421;SDS011;6782;55.904;13.396;2022-07-25T16:21:53;4.32;;;3.92;;
13421;SDS011;6782;55.904;13.396;2022-07-25T16:24:41;4.20;;;3.90;;
13421;SDS011;6782;55.904;13.396;2022-07-25T16:27:30;4.18;;;3.78;;
13421;SDS011;6782;55.904;13.396;2022-07-25T16:30:17;4.25;;;3.90;;
13421;SDS011;6782;55.904;13.396;2022-07-25T16:33:04;4.00;;;3.70;;
13421;SDS011;6782;55.904;13.396;2022-07-25T16:35:51;4.88;;;3.80;;
13421;SDS011;6782;55.904;13.396;2022-07-25T16:38:37;6.00;;;4.47;;
13421;SDS011;6782;55.904;13.396;2022-07-25T16:41:24;5.57;;;4.47;;
13421;SDS011;6782;55.904;13.396;2022-07-25T16:44:12;6.43;;;4.50;;
13421;SDS011;6782;55.904;13.396;2022-07-25T16:47:00;4.35;;;3.95;;
13421;SDS011;6782;55.904;13.396;2022-07-25T16:49:46;5.78;;;4.47;;
13421;SDS011;6782;55.904;13.396;2022-07-25T16:52:33;6.07;;;4.30;;